createdAt,value
2023-05-16T00:01:59.168Z,3.10
2023-05-16T00:04:27.453Z,3.37
2023-05-16T00:06:55.749Z,3.97
2023-05-16T00:09:23.731Z,3.43
2023-05-16T00:11:52.025Z,3.20
2023-05-16T00:14:21.877Z,3.47
2023-05-16T00:16:50.692Z,3.70
2023-05-16T00:19:21.502Z,3.30
2023-05-16T00:21:49.507Z,3.77
2023-05-16T00:24:17.461Z,3.17
2023-05-16T00:26:45.542Z,3.30
2023-05-16T00:29:13.545Z,3.50
2023-05-16T00:31:42.932Z,3.10
2023-05-16T00:34:11.220Z,3.70
2023-05-16T00:36:39.238Z,3.37
2023-05-16T00:39:07.284Z,3.63
2023-05-16T00:41:35.735Z,3.43
2023-05-16T00:44:03.858Z,3.23
2023-05-16T00:46:31.866Z,3.77
2023-05-16T00:49:04.568Z,3.77
2023-05-16T00:51:32.626Z,3.90
2023-05-16T00:54:00.864Z,3.43
2023-05-16T00:56:28.906Z,3.43
2023-05-16T00:58:57.208Z,3.70
2023-05-16T01:01:27.299Z,3.53
2023-05-16T01:03:55.996Z,2.90
2023-05-16T01:06:25.611Z,3.97
2023-05-16T01:08:53.622Z,3.57
2023-05-16T01:11:28.279Z,4.00
2023-05-16T01:14:03.960Z,3.90
2023-05-16T01:16:38.142Z,3.83
2023-05-16T01:19:16.431Z,3.60
2023-05-16T01:21:51.243Z,3.50
2023-05-16T01:24:28.477Z,3.70
2023-05-16T01:27:00.159Z,4.03
2023-05-16T01:29:28.130Z,4.30
2023-05-16T01:31:56.105Z,4.43
2023-05-16T01:34:24.120Z,4.07
2023-05-16T01:37:01.628Z,4.00
2023-05-16T01:39:38.077Z,3.97
2023-05-16T01:42:12.182Z,4.13
2023-05-16T01:44:46.724Z,4.23
2023-05-16T01:47:18.324Z,3.87
2023-05-16T01:49:52.338Z,3.90
2023-05-16T01:52:25.391Z,3.70
2023-05-16T01:54:58.815Z,3.87
2023-05-16T01:57:30.305Z,4.20
2023-05-16T01:59:59.697Z,3.93
2023-05-16T02:02:30.492Z,4.33
2023-05-16T02:04:58.511Z,4.27
2023-05-16T02:07:26.955Z,4.80
2023-05-16T02:09:55.029Z,4.93
2023-05-16T02:12:23.021Z,4.20
2023-05-16T02:14:52.571Z,4.10
2023-05-16T02:17:20.570Z,4.50
2023-05-16T02:19:50.058Z,4.47
2023-05-16T02:22:18.024Z,4.70
2023-05-16T02:24:46.016Z,4.63
2023-05-16T02:27:13.996Z,4.57
2023-05-16T02:29:41.933Z,4.70
2023-05-16T02:32:11.275Z,4.77
2023-05-16T02:34:39.515Z,4.70
2023-05-16T02:37:07.483Z,4.53
2023-05-16T02:39:35.463Z,4.53
2023-05-16T02:42:03.438Z,4.80
2023-05-16T02:44:31.422Z,4.33
2023-05-16T02:46:59.405Z,4.67
2023-05-16T02:49:29.033Z,5.07
2023-05-16T02:51:57.705Z,4.53
2023-05-16T02:54:25.708Z,5.13
2023-05-16T02:56:53.904Z,4.60
2023-05-16T02:59:22.147Z,5.13
2023-05-16T03:01:50.139Z,4.80
2023-05-16T03:04:18.131Z,5.23
2023-05-16T03:06:48.732Z,4.93
2023-05-16T03:09:16.787Z,5.50
2023-05-16T03:11:44.704Z,5.20
2023-05-16T03:14:12.660Z,6.43
2023-05-16T03:16:43.241Z,6.07
2023-05-16T03:19:11.563Z,6.20
2023-05-16T03:21:39.527Z,6.00
2023-05-16T03:24:09.496Z,6.00
2023-05-16T03:26:37.483Z,5.47
2023-05-16T03:29:05.453Z,6.00
2023-05-16T03:31:33.694Z,5.10
2023-05-16T03:34:01.696Z,5.53
2023-05-16T03:36:29.711Z,4.80
2023-05-16T03:38:57.730Z,4.87
2023-05-16T03:41:28.047Z,4.83
2023-05-16T03:43:56.099Z,5.13
2023-05-16T03:46:24.246Z,4.83
2023-05-16T03:48:52.444Z,4.93
2023-05-16T03:51:20.439Z,4.70
2023-05-16T03:53:49.550Z,5.20
2023-05-16T03:56:17.562Z,4.70
2023-05-16T03:58:47.008Z,5.07
2023-05-16T04:01:17.415Z,5.20
2023-05-16T04:03:45.533Z,5.73
2023-05-16T04:06:13.664Z,5.00
2023-05-16T04:08:44.864Z,5.20
2023-05-16T04:11:13.106Z,5.10
2023-05-16T04:13:41.486Z,5.67
2023-05-16T04:16:10.891Z,5.83
2023-05-16T04:18:38.910Z,6.00
2023-05-16T04:21:07.622Z,5.50
2023-05-16T04:23:35.569Z,5.40
2023-05-16T04:26:04.678Z,5.90
2023-05-16T04:28:32.868Z,5.20
2023-05-16T04:31:01.166Z,5.70
2023-05-16T04:33:30.534Z,5.60
2023-05-16T04:35:59.274Z,5.53
2023-05-16T04:38:27.588Z,5.03
2023-05-16T04:40:55.566Z,5.20
2023-05-16T04:43:23.523Z,5.33
2023-05-16T04:45:53.975Z,5.20
2023-05-16T04:48:22.010Z,5.07
2023-05-16T04:50:52.387Z,5.30
2023-05-16T04:53:20.387Z,4.90
2023-05-16T04:55:49.811Z,4.33
2023-05-16T04:58:17.838Z,5.10
2023-05-16T05:00:45.818Z,5.30
2023-05-16T05:03:13.796Z,5.40
2023-05-16T05:05:41.870Z,4.80
2023-05-16T05:08:11.215Z,4.70
2023-05-16T05:10:39.296Z,4.37
2023-05-16T05:13:07.348Z,4.53
2023-05-16T05:15:37.741Z,4.70
2023-05-16T05:18:06.230Z,4.30
2023-05-16T05:20:34.377Z,4.13
2023-05-16T05:23:02.371Z,3.43
2023-05-16T05:25:34.456Z,3.23
2023-05-16T05:28:04.089Z,3.70
2023-05-16T05:30:32.159Z,3.60
2023-05-16T05:33:00.511Z,3.40
2023-05-16T05:35:31.645Z,3.40
2023-05-16T05:37:59.600Z,3.50
2023-05-16T05:40:30.167Z,3.27
2023-05-16T05:42:59.476Z,3.63
2023-05-16T05:45:27.739Z,3.30
2023-05-16T05:47:57.494Z,3.20
2023-05-16T05:50:25.551Z,3.40
2023-05-16T05:52:53.591Z,3.43
2023-05-16T05:55:21.856Z,3.70
2023-05-16T05:57:49.796Z,3.40
2023-05-16T06:00:19.517Z,3.40
2023-05-16T06:02:48.122Z,3.47
2023-05-16T06:05:16.174Z,3.23
2023-05-16T06:07:44.196Z,3.33
2023-05-16T06:10:12.193Z,3.67
2023-05-16T06:12:40.113Z,3.30
2023-05-16T06:15:09.385Z,3.50
2023-05-16T06:17:38.865Z,3.07
2023-05-16T06:20:10.794Z,3.00
2023-05-16T06:22:38.866Z,2.70
2023-05-16T06:25:07.579Z,2.97
2023-05-16T06:27:35.554Z,2.90
2023-05-16T06:30:03.518Z,3.00
2023-05-16T06:32:31.578Z,2.70
2023-05-16T06:35:00.897Z,2.90
2023-05-16T06:37:28.905Z,2.70
2023-05-16T06:39:57.130Z,2.80
2023-05-16T06:42:25.124Z,2.63
2023-05-16T06:44:53.378Z,2.93
2023-05-16T06:47:21.616Z,2.47
2023-05-16T06:49:49.620Z,2.87
2023-05-16T06:52:18.953Z,2.63
2023-05-16T06:54:49.366Z,2.63
2023-05-16T06:57:17.537Z,2.70
2023-05-16T06:59:45.653Z,2.80
2023-05-16T07:02:13.663Z,2.47
2023-05-16T07:04:41.763Z,2.80
2023-05-16T07:07:09.770Z,2.37
2023-05-16T07:09:39.275Z,2.53
2023-05-16T07:12:12.754Z,2.80
2023-05-16T07:14:44.537Z,2.47
2023-05-16T07:17:12.609Z,2.50
2023-05-16T07:19:40.824Z,2.53
2023-05-16T07:22:08.852Z,2.53
2023-05-16T07:24:38.243Z,2.67
2023-05-16T07:27:09.483Z,2.60
2023-05-16T07:29:37.942Z,2.90
2023-05-16T07:32:08.255Z,2.50
2023-05-16T07:34:38.179Z,2.97
2023-05-16T07:37:12.696Z,2.87
2023-05-16T07:39:42.188Z,2.90
2023-05-16T07:42:10.975Z,2.60
2023-05-16T07:44:38.956Z,2.60
2023-05-16T07:47:08.649Z,2.67
2023-05-16T07:49:36.631Z,3.00
2023-05-16T07:52:04.934Z,2.88
2023-05-16T07:54:35.904Z,2.70
2023-05-16T07:57:06.077Z,2.70
2023-05-16T07:59:34.173Z,2.97
2023-05-16T08:02:02.810Z,2.97
2023-05-16T08:04:32.864Z,2.92
2023-05-16T08:07:00.909Z,3.17
2023-05-16T08:09:28.952Z,3.00
2023-05-16T08:11:57.206Z,3.30
2023-05-16T08:14:28.640Z,2.70
2023-05-16T08:16:59.249Z,3.25
2023-05-16T08:19:27.491Z,2.35
2023-05-16T08:21:56.164Z,3.05
2023-05-16T08:24:24.767Z,2.80
2023-05-16T08:26:52.775Z,2.63
2023-05-16T08:29:20.760Z,3.08
2023-05-16T08:31:50.295Z,2.70
2023-05-16T08:34:18.433Z,2.70
2023-05-16T08:36:49.392Z,2.72
2023-05-16T08:39:17.375Z,2.90
2023-05-16T08:41:45.431Z,3.10
2023-05-16T08:44:24.269Z,3.10
2023-05-16T08:46:55.123Z,3.15
2023-05-16T08:49:23.740Z,2.60
2023-05-16T08:51:57.791Z,2.90
2023-05-16T08:54:28.159Z,2.80
2023-05-16T08:56:57.239Z,2.60
2023-05-16T08:59:25.945Z,3.00
2023-05-16T09:01:56.164Z,2.70
2023-05-16T09:04:25.608Z,2.42
2023-05-16T09:06:54.232Z,2.08
2023-05-16T09:09:22.261Z,3.55
2023-05-16T09:11:50.448Z,3.33
2023-05-16T09:14:18.475Z,2.78
2023-05-16T09:16:50.550Z,3.33
2023-05-16T09:19:19.986Z,3.10
2023-05-16T09:21:48.183Z,2.88
2023-05-16T09:24:16.188Z,2.70
2023-05-16T09:26:46.205Z,2.72
2023-05-16T09:29:15.340Z,2.78
2023-05-16T09:31:44.131Z,2.80
2023-05-16T09:34:13.005Z,2.92
2023-05-16T09:36:43.773Z,2.20
2023-05-16T09:39:16.596Z,2.90
2023-05-16T09:41:44.621Z,2.90
2023-05-16T09:44:12.648Z,2.60
2023-05-16T09:46:41.533Z,2.67
2023-05-16T09:49:13.455Z,3.05
2023-05-16T09:51:43.707Z,2.70
2023-05-16T09:54:11.727Z,2.80
2023-05-16T09:56:50.599Z,3.20
2023-05-16T09:59:18.621Z,2.20
2023-05-16T10:01:47.191Z,2.88
2023-05-16T10:04:16.376Z,3.05
2023-05-16T10:06:47.799Z,2.63
2023-05-16T10:09:17.568Z,2.40
2023-05-16T10:11:47.446Z,2.67
2023-05-16T10:14:18.897Z,2.50
2023-05-16T10:16:52.466Z,2.53
2023-05-16T10:19:24.322Z,2.55
2023-05-16T10:21:58.913Z,2.92
2023-05-16T10:24:32.479Z,2.25
2023-05-16T10:27:00.509Z,2.60
2023-05-16T10:29:33.418Z,2.60
2023-05-16T10:32:07.108Z,2.58
2023-05-16T10:34:36.087Z,2.25
2023-05-16T10:37:07.320Z,2.65
2023-05-16T10:39:35.890Z,2.65
2023-05-16T10:42:04.588Z,2.53
2023-05-16T10:44:34.049Z,2.83
2023-05-16T10:47:04.527Z,2.75
2023-05-16T10:49:33.229Z,2.45
2023-05-16T10:52:09.078Z,2.70
2023-05-16T10:54:39.407Z,2.47
2023-05-16T10:57:12.065Z,2.50
2023-05-16T10:59:45.366Z,2.45
2023-05-16T11:02:28.660Z,2.80
2023-05-16T11:04:59.437Z,3.28
2023-05-16T11:07:34.931Z,3.33
2023-05-16T11:10:08.659Z,3.28
2023-05-16T11:12:44.754Z,3.30
2023-05-16T11:15:20.541Z,3.05
2023-05-16T11:17:48.729Z,2.50
2023-05-16T11:20:27.355Z,2.70
2023-05-16T11:23:22.977Z,2.50
2023-05-16T11:25:54.902Z,2.10
2023-05-16T11:28:24.857Z,2.40
2023-05-16T11:30:56.227Z,2.75
2023-05-16T11:33:27.825Z,2.67
2023-05-16T11:36:14.392Z,3.15
2023-05-16T11:38:46.107Z,2.75
2023-05-16T11:41:16.503Z,2.60
2023-05-16T11:43:46.362Z,2.70
2023-05-16T11:46:14.999Z,2.83
2023-05-16T11:48:43.761Z,2.78
2023-05-16T11:51:11.921Z,2.67
2023-05-16T11:53:40.007Z,2.97
2023-05-16T11:56:10.218Z,2.85
2023-05-16T11:58:38.503Z,2.50
2023-05-16T12:01:07.685Z,3.10
2023-05-16T12:03:37.109Z,2.92
2023-05-16T12:06:05.838Z,3.55
2023-05-16T12:08:34.519Z,3.42
2023-05-16T12:11:02.581Z,3.70
2023-05-16T12:13:32.281Z,3.45
2023-05-16T12:16:00.544Z,3.80
2023-05-16T12:18:29.066Z,6.28
2023-05-16T12:20:57.130Z,3.90
2023-05-16T12:23:27.776Z,3.60
2023-05-16T12:25:57.732Z,3.80
2023-05-16T12:28:28.351Z,3.80
2023-05-16T12:30:57.782Z,3.60
2023-05-16T12:33:25.950Z,3.87
2023-05-16T12:35:54.810Z,3.40
2023-05-16T12:38:26.420Z,3.50
2023-05-16T12:40:59.652Z,4.00
2023-05-16T12:43:28.617Z,4.00
2023-05-16T12:45:58.945Z,4.80
2023-05-16T12:48:35.707Z,4.87
2023-05-16T12:51:14.706Z,5.57
2023-05-16T12:53:54.465Z,5.33
2023-05-16T12:56:29.898Z,5.30
2023-05-16T12:58:57.948Z,4.70
2023-05-16T13:01:27.661Z,4.90
2023-05-16T13:03:56.040Z,4.87
2023-05-16T13:06:24.134Z,5.20
2023-05-16T13:08:52.177Z,4.97
2023-05-16T13:11:20.167Z,4.30
2023-05-16T13:13:48.420Z,4.43
2023-05-16T13:16:16.520Z,3.70
2023-05-16T13:18:46.142Z,3.70
2023-05-16T13:21:14.148Z,3.60
2023-05-16T13:23:42.138Z,4.10
2023-05-16T13:26:10.177Z,4.20
2023-05-16T13:28:38.141Z,4.17
2023-05-16T13:31:06.231Z,4.40
2023-05-16T13:33:39.090Z,4.13
2023-05-16T13:36:10.845Z,3.90
2023-05-16T13:38:39.021Z,3.97
2023-05-16T13:41:08.996Z,4.03
2023-05-16T13:43:37.015Z,4.17
2023-05-16T13:46:05.076Z,4.13
2023-05-16T13:48:33.215Z,4.20
2023-05-16T13:51:01.287Z,4.20
2023-05-16T13:53:30.696Z,4.70
2023-05-16T13:55:58.686Z,4.57
2023-05-16T13:58:29.891Z,4.60
2023-05-16T14:00:57.900Z,4.87
2023-05-16T14:03:26.015Z,4.90
2023-05-16T14:05:54.377Z,5.23
2023-05-16T14:08:22.365Z,5.00
2023-05-16T14:10:51.925Z,5.20
2023-05-16T14:13:19.902Z,5.87
2023-05-16T14:15:48.003Z,5.70
2023-05-16T14:18:16.166Z,6.00
2023-05-16T14:20:44.284Z,5.70
2023-05-16T14:23:12.257Z,6.23
2023-05-16T14:25:40.381Z,6.50
2023-05-16T14:28:09.752Z,6.00
2023-05-16T14:30:37.756Z,5.87
2023-05-16T14:33:06.176Z,5.80
2023-05-16T14:35:34.824Z,5.70
2023-05-16T14:38:02.836Z,5.90
2023-05-16T14:40:30.871Z,5.00
2023-05-16T14:42:58.852Z,4.60
2023-05-16T14:45:28.481Z,4.50
2023-05-16T14:47:56.672Z,4.70
2023-05-16T14:50:24.893Z,5.43
2023-05-16T14:52:53.879Z,4.60
2023-05-16T14:55:22.910Z,4.73
2023-05-16T14:57:57.131Z,5.20
2023-05-16T15:00:30.051Z,4.67
2023-05-16T15:02:58.618Z,4.97
2023-05-16T15:05:26.801Z,4.50
2023-05-16T15:07:54.915Z,4.67
2023-05-16T15:10:22.972Z,5.10
2023-05-16T15:12:51.029Z,4.53
2023-05-16T15:15:19.221Z,4.83
2023-05-16T15:17:51.751Z,4.33
2023-05-16T15:20:21.915Z,4.67
2023-05-16T15:22:50.784Z,4.47
2023-05-16T15:25:18.982Z,4.47
2023-05-16T15:27:46.994Z,4.80
2023-05-16T15:30:15.721Z,4.80
2023-05-16T15:32:43.809Z,4.67
2023-05-16T15:35:13.214Z,5.30
2023-05-16T15:37:41.958Z,4.73
2023-05-16T15:40:11.710Z,5.10
2023-05-16T15:42:39.716Z,5.00
2023-05-16T15:45:09.079Z,5.10
2023-05-16T15:47:39.953Z,5.33
2023-05-16T15:50:13.409Z,5.47
2023-05-16T15:52:42.801Z,5.40
2023-05-16T15:55:12.521Z,5.40
2023-05-16T15:57:40.629Z,5.30
2023-05-16T16:00:09.958Z,5.60
2023-05-16T16:02:38.166Z,5.87
2023-05-16T16:05:09.117Z,5.30
2023-05-16T16:07:37.233Z,5.90
2023-05-16T16:10:07.799Z,7.70
2023-05-16T16:12:37.072Z,8.23
2023-05-16T16:15:06.577Z,6.93
2023-05-16T16:17:34.622Z,7.13
2023-05-16T16:20:03.764Z,6.77
2023-05-16T16:22:32.073Z,6.30
2023-05-16T16:25:00.530Z,6.10
2023-05-16T16:27:30.262Z,5.93
2023-05-16T16:29:58.241Z,5.97
2023-05-16T16:32:26.267Z,6.10
2023-05-16T16:34:54.310Z,5.33
2023-05-16T16:37:22.311Z,5.43
2023-05-16T16:39:50.308Z,6.10
2023-05-16T16:42:18.307Z,5.80
2023-05-16T16:44:47.873Z,5.50
2023-05-16T16:47:16.111Z,6.40
2023-05-16T16:49:45.446Z,6.10
2023-05-16T16:52:13.460Z,6.00
2023-05-16T16:54:41.477Z,6.20
2023-05-16T16:57:10.604Z,6.03
2023-05-16T16:59:38.594Z,6.10
2023-05-16T17:02:10.181Z,6.20
2023-05-16T17:04:38.222Z,5.13
2023-05-16T17:07:07.853Z,4.93
2023-05-16T17:09:36.584Z,4.90
2023-05-16T17:12:08.384Z,4.87
2023-05-16T17:14:36.930Z,4.43
2023-05-16T17:17:05.102Z,5.00
2023-05-16T17:19:34.530Z,5.43
2023-05-16T17:22:02.770Z,5.10
2023-05-16T17:24:30.801Z,5.30
2023-05-16T17:26:58.979Z,4.80
2023-05-16T17:29:29.784Z,5.13
2023-05-16T17:31:59.507Z,4.40
2023-05-16T17:34:27.776Z,4.70
2023-05-16T17:36:57.174Z,4.90
2023-05-16T17:39:25.200Z,4.57
2023-05-16T17:41:54.219Z,4.20
2023-05-16T17:44:22.277Z,4.77
2023-05-16T17:46:50.365Z,4.20
2023-05-16T17:49:18.382Z,4.17
2023-05-16T17:51:47.845Z,4.80
2023-05-16T17:54:18.457Z,4.37
2023-05-16T17:56:46.753Z,4.23
2023-05-16T17:59:15.207Z,4.67
2023-05-16T18:01:44.565Z,4.40
2023-05-16T18:04:13.230Z,4.43
2023-05-16T18:06:42.380Z,4.10
2023-05-16T18:09:10.535Z,4.20
2023-05-16T18:11:41.430Z,4.00
2023-05-16T18:14:10.031Z,4.40
2023-05-16T18:16:38.307Z,4.37
2023-05-16T18:19:08.602Z,3.83
2023-05-16T18:21:38.163Z,4.50
2023-05-16T18:24:08.290Z,4.20
2023-05-16T18:26:36.729Z,4.57
2023-05-16T18:29:06.403Z,4.47
2023-05-16T18:31:34.576Z,5.07
2023-05-16T18:34:03.621Z,4.93
2023-05-16T18:36:31.775Z,5.40
2023-05-16T18:38:59.834Z,5.17
2023-05-16T18:41:28.214Z,5.67
2023-05-16T18:43:56.304Z,5.27
2023-05-16T18:46:27.859Z,5.03
2023-05-16T18:48:57.829Z,4.67
2023-05-16T18:51:26.225Z,5.00
2023-05-16T18:53:54.409Z,5.20
2023-05-16T18:56:22.855Z,4.60
2023-05-16T18:58:51.472Z,5.40
2023-05-16T19:01:22.225Z,5.23
2023-05-16T19:03:51.892Z,5.53
2023-05-16T19:06:19.980Z,4.90
2023-05-16T19:08:48.596Z,5.73
2023-05-16T19:11:18.371Z,5.80
2023-05-16T19:13:47.105Z,5.40
2023-05-16T19:16:15.689Z,5.43
2023-05-16T19:18:43.952Z,5.50
2023-05-16T19:21:14.140Z,5.73
2023-05-16T19:23:42.124Z,6.47
2023-05-16T19:26:10.096Z,6.20
2023-05-16T19:28:40.582Z,6.40
2023-05-16T19:31:09.278Z,6.17
2023-05-16T19:33:37.744Z,6.37
2023-05-16T19:36:06.657Z,6.10
2023-05-16T19:38:36.268Z,6.10
2023-05-16T19:41:04.290Z,6.70
2023-05-16T19:43:33.423Z,6.50
2023-05-16T19:46:01.401Z,6.73
2023-05-16T19:48:32.548Z,6.50
2023-05-16T19:51:00.938Z,6.67
2023-05-16T19:53:28.938Z,6.47
2023-05-16T19:55:58.424Z,6.70
2023-05-16T19:58:26.677Z,6.63
2023-05-16T20:00:56.074Z,6.60
2023-05-16T20:03:24.962Z,7.03
2023-05-16T20:05:55.177Z,7.60
2023-05-16T20:08:24.444Z,7.03
2023-05-16T20:10:54.098Z,7.40
2023-05-16T20:13:23.454Z,7.50
2023-05-16T20:15:51.499Z,7.30
2023-05-16T20:18:19.566Z,7.53
2023-05-16T20:20:47.644Z,7.63
2023-05-16T20:23:16.031Z,8.13
2023-05-16T20:25:44.053Z,8.03
2023-05-16T20:28:12.066Z,8.63
2023-05-16T20:30:41.476Z,8.80
2023-05-16T20:33:09.644Z,8.20
2023-05-16T20:35:37.941Z,8.57
2023-05-16T20:38:05.976Z,8.67
2023-05-16T20:40:34.072Z,9.13
2023-05-16T20:43:02.083Z,9.03
2023-05-16T20:45:31.045Z,8.93
2023-05-16T20:48:00.576Z,9.67
2023-05-16T20:50:28.624Z,9.20
2023-05-16T20:52:56.615Z,9.10
2023-05-16T20:55:27.516Z,9.23
2023-05-16T20:57:55.733Z,9.27
2023-05-16T21:00:23.887Z,8.90
2023-05-16T21:02:52.102Z,8.63
2023-05-16T21:05:34.700Z,8.97
2023-05-16T21:08:02.859Z,8.40
2023-05-16T21:10:31.129Z,8.63
2023-05-16T21:12:59.370Z,9.00
2023-05-16T21:15:27.597Z,8.57
2023-05-16T21:17:58.568Z,9.27
2023-05-16T21:20:30.012Z,8.93
2023-05-16T21:22:58.184Z,9.27
2023-05-16T21:25:26.615Z,9.00
2023-05-16T21:27:54.880Z,8.37
2023-05-16T21:30:22.948Z,8.33
2023-05-16T21:32:51.363Z,8.57
2023-05-16T21:35:19.497Z,8.17
2023-05-16T21:37:51.300Z,7.93
2023-05-16T21:40:25.553Z,8.47
2023-05-16T21:42:53.628Z,8.43
2023-05-16T21:45:21.836Z,9.03
2023-05-16T21:47:51.863Z,8.77
2023-05-16T21:50:20.218Z,8.47
2023-05-16T21:52:49.624Z,8.17
2023-05-16T21:55:17.648Z,7.63
2023-05-16T21:57:45.657Z,7.83
2023-05-16T22:00:15.032Z,6.57
2023-05-16T22:02:43.125Z,6.90
2023-05-16T22:05:11.433Z,6.97
2023-05-16T22:07:39.615Z,6.60
2023-05-16T22:10:12.767Z,6.77
2023-05-16T22:12:43.048Z,6.90
2023-05-16T22:15:11.800Z,7.70
2023-05-16T22:17:41.625Z,7.33
2023-05-16T22:20:10.624Z,6.30
2023-05-16T22:22:38.672Z,6.50
2023-05-16T22:25:09.223Z,6.13
2023-05-16T22:27:37.277Z,6.00
2023-05-16T22:30:06.116Z,6.00
2023-05-16T22:32:34.488Z,5.50
2023-05-16T22:35:02.595Z,5.00
2023-05-16T22:37:30.623Z,4.60
2023-05-16T22:39:59.928Z,4.30
2023-05-16T22:42:30.387Z,4.43
2023-05-16T22:44:58.487Z,4.80
2023-05-16T22:47:28.816Z,4.53
2023-05-16T22:49:59.409Z,4.37
2023-05-16T22:52:27.387Z,4.60
2023-05-16T22:54:55.382Z,4.93
2023-05-16T22:57:23.395Z,4.53
2023-05-16T22:59:57.577Z,4.97
2023-05-16T23:02:26.375Z,4.97
2023-05-16T23:04:54.438Z,5.00
2023-05-16T23:07:22.445Z,5.60
2023-05-16T23:09:50.585Z,5.13
2023-05-16T23:12:21.129Z,5.63
2023-05-16T23:14:49.200Z,5.77
2023-05-16T23:17:18.806Z,5.90
2023-05-16T23:19:46.954Z,5.80
2023-05-16T23:22:15.290Z,5.73
2023-05-16T23:24:43.273Z,6.13
2023-05-16T23:27:11.252Z,6.17
2023-05-16T23:29:39.487Z,6.17
2023-05-16T23:32:08.204Z,5.70
2023-05-16T23:34:37.580Z,6.20
2023-05-16T23:37:05.781Z,6.37
2023-05-16T23:39:33.832Z,6.27
2023-05-16T23:42:01.892Z,6.07
2023-05-16T23:44:29.896Z,6.13
2023-05-16T23:46:57.901Z,5.70
2023-05-16T23:49:26.058Z,5.73
2023-05-16T23:51:57.500Z,5.97
2023-05-16T23:54:26.464Z,5.80
2023-05-16T23:56:54.505Z,5.23
2023-05-16T23:59:22.508Z,6.13
